sensor_id;sensor_type;location;lat;lon;timestamp;P1;durP1;ratioP1;P2;durP2;ratioP2
24467;SDS011;12634;50.852;5.676;2023-03-11T00:02:16;4.18;;;1.50;;
24467;SDS011;12634;50.852;5.676;2023-03-11T00:04:43;8.40;;;1.65;;
24467;SDS011;12634;50.852;5.676;2023-03-11T00:07:10;5.40;;;1.20;;
24467;SDS011;12634;50.852;5.676;2023-03-11T00:09:38;5.15;;;1.30;;
24467;SDS011;12634;50.852;5.676;2023-03-11T00:12:05;8.27;;;1.80;;
24467;SDS011;12634;50.852;5.676;2023-03-11T00:14:34;7.68;;;1.80;;
24467;SDS011;12634;50.852;5.676;2023-03-11T00:17:01;5.40;;;1.95;;
24467;SDS011;12634;50.852;5.676;2023-03-11T00:19:28;8.25;;;1.70;;
24467;SDS011;12634;50.852;5.676;2023-03-11T00:21:56;8.52;;;1.75;;
24467;SDS011;12634;50.852;5.676;2023-03-11T00:24:23;5.10;;;1.70;;
24467;SDS011;12634;50.852;5.676;2023-03-11T00:26:50;6.10;;;1.30;;
24467;SDS011;12634;50.852;5.676;2023-03-11T00:29:17;6.15;;;1.40;;
24467;SDS011;12634;50.852;5.676;2023-03-11T00:31:46;5.30;;;1.63;;
24467;SDS011;12634;50.852;5.676;2023-03-11T00:34:13;6.78;;;1.80;;
24467;SDS011;12634;50.852;5.676;2023-03-11T00:36:40;6.97;;;1.52;;
24467;SDS011;12634;50.852;5.676;2023-03-11T00:39:07;6.15;;;2.13;;
24467;SDS011;12634;50.852;5.676;2023-03-11T00:41:35;9.60;;;2.33;;
24467;SDS011;12634;50.852;5.676;2023-03-11T00:44:02;8.93;;;2.17;;
24467;SDS011;12634;50.852;5.676;2023-03-11T00:46:29;8.85;;;2.00;;
24467;SDS011;12634;50.852;5.676;2023-03-11T00:48:58;7.95;;;2.05;;
24467;SDS011;12634;50.852;5.676;2023-03-11T00:51:25;4.22;;;1.95;;
24467;SDS011;12634;50.852;5.676;2023-03-11T00:53:52;10.95;;;2.50;;
24467;SDS011;12634;50.852;5.676;2023-03-11T00:56:19;7.07;;;2.35;;
24467;SDS011;12634;50.852;5.676;2023-03-11T00:58:46;7.70;;;2.45;;
24467;SDS011;12634;50.852;5.676;2023-03-11T01:01:15;5.13;;;2.30;;
24467;SDS011;12634;50.852;5.676;2023-03-11T01:03:43;6.85;;;2.08;;
24467;SDS011;12634;50.852;5.676;2023-03-11T01:06:12;4.85;;;2.10;;
24467;SDS011;12634;50.852;5.676;2023-03-11T01:08:40;3.97;;;1.85;;
24467;SDS011;12634;50.852;5.676;2023-03-11T01:11:07;11.00;;;2.13;;
24467;SDS011;12634;50.852;5.676;2023-03-11T01:13:34;6.97;;;1.95;;
24467;SDS011;12634;50.852;5.676;2023-03-11T01:16:02;11.95;;;2.67;;
24467;SDS011;12634;50.852;5.676;2023-03-11T01:18:29;8.93;;;2.20;;
24467;SDS011;12634;50.852;5.676;2023-03-11T01:20:56;5.13;;;2.05;;
24467;SDS011;12634;50.852;5.676;2023-03-11T01:23:25;8.43;;;2.42;;
24467;SDS011;12634;50.852;5.676;2023-03-11T01:25:53;5.70;;;2.10;;
24467;SDS011;12634;50.852;5.676;2023-03-11T01:28:20;9.63;;;2.30;;
24467;SDS011;12634;50.852;5.676;2023-03-11T01:30:47;9.65;;;2.30;;
24467;SDS011;12634;50.852;5.676;2023-03-11T01:33:15;7.88;;;2.53;;
24467;SDS011;12634;50.852;5.676;2023-03-11T01:35:43;9.50;;;2.25;;
24467;SDS011;12634;50.852;5.676;2023-03-11T01:38:11;7.57;;;2.08;;
24467;SDS011;12634;50.852;5.676;2023-03-11T01:40:40;6.00;;;1.73;;
24467;SDS011;12634;50.852;5.676;2023-03-11T01:46:13;6.95;;;1.90;;
24467;SDS011;12634;50.852;5.676;2023-03-11T01:48:44;6.05;;;2.17;;
24467;SDS011;12634;50.852;5.676;2023-03-11T01:51:12;6.95;;;2.22;;
24467;SDS011;12634;50.852;5.676;2023-03-11T01:53:41;8.57;;;2.60;;
24467;SDS011;12634;50.852;5.676;2023-03-11T01:56:09;4.63;;;2.00;;
24467;SDS011;12634;50.852;5.676;2023-03-11T01:58:39;10.82;;;2.40;;
24467;SDS011;12634;50.852;5.676;2023-03-11T02:01:10;8.48;;;2.38;;
24467;SDS011;12634;50.852;5.676;2023-03-11T02:03:38;4.53;;;2.05;;
24467;SDS011;12634;50.852;5.676;2023-03-11T02:06:07;10.23;;;2.00;;
24467;SDS011;12634;50.852;5.676;2023-03-11T02:08:37;6.93;;;1.92;;
24467;SDS011;12634;50.852;5.676;2023-03-11T02:11:07;7.53;;;1.70;;
24467;SDS011;12634;50.852;5.676;2023-03-11T02:13:40;8.73;;;2.20;;
24467;SDS011;12634;50.852;5.676;2023-03-11T02:16:10;8.23;;;2.10;;
24467;SDS011;12634;50.852;5.676;2023-03-11T02:18:38;9.00;;;2.00;;
24467;SDS011;12634;50.852;5.676;2023-03-11T02:21:08;8.50;;;2.28;;
24467;SDS011;12634;50.852;5.676;2023-03-11T02:23:46;4.60;;;1.90;;
24467;SDS011;12634;50.852;5.676;2023-03-11T02:26:21;10.98;;;2.20;;
24467;SDS011;12634;50.852;5.676;2023-03-11T02:28:54;7.32;;;2.25;;
24467;SDS011;12634;50.852;5.676;2023-03-11T02:31:22;7.05;;;2.35;;
24467;SDS011;12634;50.852;5.676;2023-03-11T02:33:51;3.40;;;2.10;;
24467;SDS011;12634;50.852;5.676;2023-03-11T02:36:29;6.50;;;2.40;;
24467;SDS011;12634;50.852;5.676;2023-03-11T02:38:58;5.68;;;1.92;;
24467;SDS011;12634;50.852;5.676;2023-03-11T02:41:25;6.25;;;2.55;;
24467;SDS011;12634;50.852;5.676;2023-03-11T02:43:55;6.68;;;2.40;;
24467;SDS011;12634;50.852;5.676;2023-03-11T02:46:22;5.32;;;2.50;;
24467;SDS011;12634;50.852;5.676;2023-03-11T02:48:50;8.82;;;2.40;;
24467;SDS011;12634;50.852;5.676;2023-03-11T02:51:18;5.07;;;2.00;;
24467;SDS011;12634;50.852;5.676;2023-03-11T02:53:47;6.65;;;2.22;;
24467;SDS011;12634;50.852;5.676;2023-03-11T02:56:16;7.53;;;2.47;;
24467;SDS011;12634;50.852;5.676;2023-03-11T02:58:44;8.57;;;2.78;;
24467;SDS011;12634;50.852;5.676;2023-03-11T03:01:12;4.50;;;2.40;;
24467;SDS011;12634;50.852;5.676;2023-03-11T03:03:39;8.75;;;2.05;;
24467;SDS011;12634;50.852;5.676;2023-03-11T03:06:06;4.90;;;2.33;;
24467;SDS011;12634;50.852;5.676;2023-03-11T03:08:33;5.47;;;2.38;;
24467;SDS011;12634;50.852;5.676;2023-03-11T03:11:01;7.72;;;2.70;;
24467;SDS011;12634;50.852;5.676;2023-03-11T03:13:28;8.48;;;2.67;;
24467;SDS011;12634;50.852;5.676;2023-03-11T03:15:56;6.10;;;2.72;;
24467;SDS011;12634;50.852;5.676;2023-03-11T03:18:25;11.07;;;3.17;;
24467;SDS011;12634;50.852;5.676;2023-03-11T03:20:53;6.97;;;2.40;;
24467;SDS011;12634;50.852;5.676;2023-03-11T03:23:20;5.90;;;2.97;;
24467;SDS011;12634;50.852;5.676;2023-03-11T03:25:47;9.60;;;2.70;;
24467;SDS011;12634;50.852;5.676;2023-03-11T03:28:15;10.77;;;2.50;;
24467;SDS011;12634;50.852;5.676;2023-03-11T03:30:42;7.70;;;2.78;;
24467;SDS011;12634;50.852;5.676;2023-03-11T03:33:09;7.75;;;2.53;;
24467;SDS011;12634;50.852;5.676;2023-03-11T03:35:40;6.43;;;2.33;;
24467;SDS011;12634;50.852;5.676;2023-03-11T03:38:08;8.18;;;2.45;;
24467;SDS011;12634;50.852;5.676;2023-03-11T03:40:35;6.43;;;2.83;;
24467;SDS011;12634;50.852;5.676;2023-03-11T03:43:02;7.30;;;2.45;;
24467;SDS011;12634;50.852;5.676;2023-03-11T03:45:30;6.22;;;2.60;;
24467;SDS011;12634;50.852;5.676;2023-03-11T03:47:57;10.32;;;2.80;;
24467;SDS011;12634;50.852;5.676;2023-03-11T03:50:24;9.70;;;2.10;;
24467;SDS011;12634;50.852;5.676;2023-03-11T03:52:53;7.75;;;2.30;;
24467;SDS011;12634;50.852;5.676;2023-03-11T03:55:20;4.90;;;2.47;;
24467;SDS011;12634;50.852;5.676;2023-03-11T03:57:47;7.05;;;2.80;;
24467;SDS011;12634;50.852;5.676;2023-03-11T04:00:14;9.27;;;3.60;;
24467;SDS011;12634;50.852;5.676;2023-03-11T04:02:42;9.90;;;3.50;;
24467;SDS011;12634;50.852;5.676;2023-03-11T04:05:09;5.80;;;2.53;;
24467;SDS011;12634;50.852;5.676;2023-03-11T04:07:37;8.40;;;2.17;;
24467;SDS011;12634;50.852;5.676;2023-03-11T04:10:06;5.72;;;2.67;;
24467;SDS011;12634;50.852;5.676;2023-03-11T04:12:33;10.68;;;3.00;;
24467;SDS011;12634;50.852;5.676;2023-03-11T04:15:00;13.20;;;2.20;;
24467;SDS011;12634;50.852;5.676;2023-03-11T04:17:28;3.70;;;1.92;;
24467;SDS011;12634;50.852;5.676;2023-03-11T04:19:55;5.30;;;2.55;;
24467;SDS011;12634;50.852;5.676;2023-03-11T04:22:22;8.80;;;2.70;;
24467;SDS011;12634;50.852;5.676;2023-03-11T04:24:49;7.13;;;2.78;;
24467;SDS011;12634;50.852;5.676;2023-03-11T04:27:18;6.32;;;2.80;;
24467;SDS011;12634;50.852;5.676;2023-03-11T04:29:45;10.02;;;2.78;;
24467;SDS011;12634;50.852;5.676;2023-03-11T04:32:12;5.15;;;2.70;;
24467;SDS011;12634;50.852;5.676;2023-03-11T04:34:40;6.57;;;2.97;;
24467;SDS011;12634;50.852;5.676;2023-03-11T04:37:07;7.15;;;2.35;;
24467;SDS011;12634;50.852;5.676;2023-03-11T04:39:34;6.43;;;2.22;;
24467;SDS011;12634;50.852;5.676;2023-03-11T04:42:02;6.35;;;2.65;;
24467;SDS011;12634;50.852;5.676;2023-03-11T04:44:31;3.83;;;2.15;;
24467;SDS011;12634;50.852;5.676;2023-03-11T04:47:00;4.65;;;2.03;;
24467;SDS011;12634;50.852;5.676;2023-03-11T04:49:27;9.95;;;2.63;;
24467;SDS011;12634;50.852;5.676;2023-03-11T04:51:55;5.78;;;2.50;;
24467;SDS011;12634;50.852;5.676;2023-03-11T04:54:22;6.47;;;2.72;;
24467;SDS011;12634;50.852;5.676;2023-03-11T04:56:49;8.90;;;3.17;;
24467;SDS011;12634;50.852;5.676;2023-03-11T04:59:16;9.50;;;2.63;;
24467;SDS011;12634;50.852;5.676;2023-03-11T05:01:45;5.00;;;2.53;;
24467;SDS011;12634;50.852;5.676;2023-03-11T05:04:12;12.80;;;3.10;;
24467;SDS011;12634;50.852;5.676;2023-03-11T05:06:39;7.10;;;2.58;;
24467;SDS011;12634;50.852;5.676;2023-03-11T05:09:06;6.03;;;2.28;;
24467;SDS011;12634;50.852;5.676;2023-03-11T05:11:33;7.00;;;2.55;;
24467;SDS011;12634;50.852;5.676;2023-03-11T05:14:01;5.30;;;2.42;;
24467;SDS011;12634;50.852;5.676;2023-03-11T05:16:28;10.55;;;2.88;;
24467;SDS011;12634;50.852;5.676;2023-03-11T05:18:57;6.50;;;2.90;;
24467;SDS011;12634;50.852;5.676;2023-03-11T05:21:24;4.03;;;2.25;;
24467;SDS011;12634;50.852;5.676;2023-03-11T05:23:51;4.28;;;2.42;;
24467;SDS011;12634;50.852;5.676;2023-03-11T05:26:18;8.00;;;3.35;;
24467;SDS011;12634;50.852;5.676;2023-03-11T05:28:45;8.43;;;2.63;;
24467;SDS011;12634;50.852;5.676;2023-03-11T05:31:13;5.95;;;2.90;;
24467;SDS011;12634;50.852;5.676;2023-03-11T05:33:40;6.88;;;2.47;;
24467;SDS011;12634;50.852;5.676;2023-03-11T05:36:09;5.38;;;2.35;;
24467;SDS011;12634;50.852;5.676;2023-03-11T05:38:36;5.18;;;2.35;;
24467;SDS011;12634;50.852;5.676;2023-03-11T05:41:03;7.88;;;3.10;;
24467;SDS011;12634;50.852;5.676;2023-03-11T05:43:31;7.75;;;3.05;;
24467;SDS011;12634;50.852;5.676;2023-03-11T05:45:58;7.10;;;2.50;;
24467;SDS011;12634;50.852;5.676;2023-03-11T05:48:25;9.38;;;2.95;;
24467;SDS011;12634;50.852;5.676;2023-03-11T05:50:52;6.55;;;2.60;;
24467;SDS011;12634;50.852;5.676;2023-03-11T05:53:21;5.40;;;2.47;;
24467;SDS011;12634;50.852;5.676;2023-03-11T05:55:54;6.75;;;2.42;;
24467;SDS011;12634;50.852;5.676;2023-03-11T05:58:22;8.57;;;2.55;;
24467;SDS011;12634;50.852;5.676;2023-03-11T06:00:49;5.72;;;1.92;;
24467;SDS011;12634;50.852;5.676;2023-03-11T06:03:16;8.43;;;2.53;;
24467;SDS011;12634;50.852;5.676;2023-03-11T06:05:43;9.07;;;2.60;;
24467;SDS011;12634;50.852;5.676;2023-03-11T06:08:11;4.65;;;2.35;;
24467;SDS011;12634;50.852;5.676;2023-03-11T06:10:39;5.03;;;2.10;;
24467;SDS011;12634;50.852;5.676;2023-03-11T06:13:06;5.57;;;2.05;;
24467;SDS011;12634;50.852;5.676;2023-03-11T06:15:34;12.85;;;3.40;;
24467;SDS011;12634;50.852;5.676;2023-03-11T06:18:02;5.40;;;2.25;;
24467;SDS011;12634;50.852;5.676;2023-03-11T06:20:30;4.65;;;1.98;;
24467;SDS011;12634;50.852;5.676;2023-03-11T06:22:57;4.43;;;2.22;;
24467;SDS011;12634;50.852;5.676;2023-03-11T06:25:24;6.53;;;2.25;;
24467;SDS011;12634;50.852;5.676;2023-03-11T06:27:53;7.03;;;2.40;;
24467;SDS011;12634;50.852;5.676;2023-03-11T06:30:20;8.57;;;2.90;;
24467;SDS011;12634;50.852;5.676;2023-03-11T06:32:48;7.50;;;2.38;;
24467;SDS011;12634;50.852;5.676;2023-03-11T06:35:16;6.60;;;2.60;;
24467;SDS011;12634;50.852;5.676;2023-03-11T06:37:43;7.78;;;2.65;;
24467;SDS011;12634;50.852;5.676;2023-03-11T06:40:10;4.72;;;2.40;;
24467;SDS011;12634;50.852;5.676;2023-03-11T06:42:38;7.38;;;2.90;;
24467;SDS011;12634;50.852;5.676;2023-03-11T06:45:07;7.07;;;2.90;;
24467;SDS011;12634;50.852;5.676;2023-03-11T06:47:35;7.10;;;3.53;;
24467;SDS011;12634;50.852;5.676;2023-03-11T06:50:02;8.75;;;4.15;;
24467;SDS011;12634;50.852;5.676;2023-03-11T06:52:33;7.72;;;3.33;;
24467;SDS011;12634;50.852;5.676;2023-03-11T06:55:00;8.10;;;3.20;;
24467;SDS011;12634;50.852;5.676;2023-03-11T06:57:28;9.27;;;3.50;;
24467;SDS011;12634;50.852;5.676;2023-03-11T06:59:56;9.20;;;3.58;;
24467;SDS011;12634;50.852;5.676;2023-03-11T07:02:24;7.82;;;3.20;;
24467;SDS011;12634;50.852;5.676;2023-03-11T07:04:51;7.88;;;2.78;;
24467;SDS011;12634;50.852;5.676;2023-03-11T07:07:18;5.80;;;2.88;;
24467;SDS011;12634;50.852;5.676;2023-03-11T07:09:46;6.75;;;2.90;;
24467;SDS011;12634;50.852;5.676;2023-03-11T07:12:13;6.32;;;2.83;;
24467;SDS011;12634;50.852;5.676;2023-03-11T07:14:40;7.47;;;2.63;;
24467;SDS011;12634;50.852;5.676;2023-03-11T07:17:07;6.10;;;2.53;;
24467;SDS011;12634;50.852;5.676;2023-03-11T07:19:36;7.93;;;2.67;;
24467;SDS011;12634;50.852;5.676;2023-03-11T07:22:04;6.00;;;2.92;;
24467;SDS011;12634;50.852;5.676;2023-03-11T07:24:31;5.68;;;2.95;;
24467;SDS011;12634;50.852;5.676;2023-03-11T07:26:58;8.93;;;3.33;;
24467;SDS011;12634;50.852;5.676;2023-03-11T07:29:25;4.32;;;2.72;;
24467;SDS011;12634;50.852;5.676;2023-03-11T07:31:53;6.05;;;2.40;;
24467;SDS011;12634;50.852;5.676;2023-03-11T07:34:20;8.00;;;2.80;;
24467;SDS011;12634;50.852;5.676;2023-03-11T07:36:48;8.00;;;3.03;;
24467;SDS011;12634;50.852;5.676;2023-03-11T07:39:16;6.00;;;2.67;;
24467;SDS011;12634;50.852;5.676;2023-03-11T07:41:44;7.80;;;3.25;;
24467;SDS011;12634;50.852;5.676;2023-03-11T07:44:12;6.43;;;2.50;;
24467;SDS011;12634;50.852;5.676;2023-03-11T07:46:40;8.07;;;3.28;;
24467;SDS011;12634;50.852;5.676;2023-03-11T07:49:07;7.28;;;2.75;;
24467;SDS011;12634;50.852;5.676;2023-03-11T07:51:35;6.65;;;2.35;;
24467;SDS011;12634;50.852;5.676;2023-03-11T07:54:04;7.93;;;2.45;;
24467;SDS011;12634;50.852;5.676;2023-03-11T07:56:32;5.18;;;2.38;;
24467;SDS011;12634;50.852;5.676;2023-03-11T07:59:01;4.53;;;2.25;;
24467;SDS011;12634;50.852;5.676;2023-03-11T08:01:29;7.00;;;2.53;;
24467;SDS011;12634;50.852;5.676;2023-03-11T08:04:00;5.57;;;2.13;;
24467;SDS011;12634;50.852;5.676;2023-03-11T08:06:31;7.20;;;2.67;;
24467;SDS011;12634;50.852;5.676;2023-03-11T08:08:59;6.40;;;2.63;;
24467;SDS011;12634;50.852;5.676;2023-03-11T08:11:30;5.82;;;2.75;;
24467;SDS011;12634;50.852;5.676;2023-03-11T08:13:57;5.53;;;2.25;;
24467;SDS011;12634;50.852;5.676;2023-03-11T08:16:25;6.15;;;2.47;;
24467;SDS011;12634;50.852;5.676;2023-03-11T08:18:53;7.30;;;2.72;;
24467;SDS011;12634;50.852;5.676;2023-03-11T08:21:20;5.25;;;2.35;;
24467;SDS011;12634;50.852;5.676;2023-03-11T08:23:49;5.30;;;2.80;;
24467;SDS011;12634;50.852;5.676;2023-03-11T08:26:17;10.00;;;2.97;;
24467;SDS011;12634;50.852;5.676;2023-03-11T08:28:47;10.45;;;2.90;;
24467;SDS011;12634;50.852;5.676;2023-03-11T08:31:15;8.40;;;2.65;;
24467;SDS011;12634;50.852;5.676;2023-03-11T08:33:43;7.50;;;2.72;;
24467;SDS011;12634;50.852;5.676;2023-03-11T08:36:14;5.80;;;2.47;;
24467;SDS011;12634;50.852;5.676;2023-03-11T08:38:41;10.02;;;2.63;;
24467;SDS011;12634;50.852;5.676;2023-03-11T08:41:08;6.10;;;2.40;;
24467;SDS011;12634;50.852;5.676;2023-03-11T08:43:35;7.03;;;2.50;;
24467;SDS011;12634;50.852;5.676;2023-03-11T08:46:04;4.80;;;2.70;;
24467;SDS011;12634;50.852;5.676;2023-03-11T08:48:32;6.05;;;1.90;;
24467;SDS011;12634;50.852;5.676;2023-03-11T08:50:59;7.78;;;2.38;;
24467;SDS011;12634;50.852;5.676;2023-03-11T08:53:27;8.55;;;2.78;;
24467;SDS011;12634;50.852;5.676;2023-03-11T08:55:54;9.15;;;2.85;;
24467;SDS011;12634;50.852;5.676;2023-03-11T08:58:21;4.45;;;2.08;;
24467;SDS011;12634;50.852;5.676;2023-03-11T09:00:48;9.60;;;2.58;;
24467;SDS011;12634;50.852;5.676;2023-03-11T09:03:17;5.72;;;2.00;;
24467;SDS011;12634;50.852;5.676;2023-03-11T09:05:44;6.85;;;2.70;;
24467;SDS011;12634;50.852;5.676;2023-03-11T09:08:11;12.93;;;2.17;;
24467;SDS011;12634;50.852;5.676;2023-03-11T09:10:39;8.23;;;2.38;;
24467;SDS011;12634;50.852;5.676;2023-03-11T09:13:06;3.90;;;2.15;;
24467;SDS011;12634;50.852;5.676;2023-03-11T09:15:33;4.30;;;1.80;;
24467;SDS011;12634;50.852;5.676;2023-03-11T09:18:00;4.55;;;2.20;;
24467;SDS011;12634;50.852;5.676;2023-03-11T09:20:29;6.97;;;2.30;;
24467;SDS011;12634;50.852;5.676;2023-03-11T09:22:56;6.72;;;2.20;;
24467;SDS011;12634;50.852;5.676;2023-03-11T09:25:23;6.63;;;1.85;;
24467;SDS011;12634;50.852;5.676;2023-03-11T09:27:50;4.18;;;1.70;;
24467;SDS011;12634;50.852;5.676;2023-03-11T09:30:17;6.85;;;1.50;;
24467;SDS011;12634;50.852;5.676;2023-03-11T09:32:44;12.02;;;1.80;;
24467;SDS011;12634;50.852;5.676;2023-03-11T09:35:11;5.65;;;1.70;;
24467;SDS011;12634;50.852;5.676;2023-03-11T09:37:40;5.93;;;1.83;;
24467;SDS011;12634;50.852;5.676;2023-03-11T09:40:09;5.25;;;1.67;;
24467;SDS011;12634;50.852;5.676;2023-03-11T09:42:40;4.53;;;1.50;;
24467;SDS011;12634;50.852;5.676;2023-03-11T09:45:14;6.38;;;1.90;;
24467;SDS011;12634;50.852;5.676;2023-03-11T09:47:44;6.18;;;1.55;;
24467;SDS011;12634;50.852;5.676;2023-03-11T09:50:22;7.80;;;1.45;;
24467;SDS011;12634;50.852;5.676;2023-03-11T09:53:05;8.77;;;1.77;;
24467;SDS011;12634;50.852;5.676;2023-03-11T09:55:48;9.50;;;1.63;;
24467;SDS011;12634;50.852;5.676;2023-03-11T09:58:19;7.28;;;1.35;;
24467;SDS011;12634;50.852;5.676;2023-03-11T10:00:52;2.90;;;1.10;;
24467;SDS011;12634;50.852;5.676;2023-03-11T10:03:24;4.63;;;1.10;;
24467;SDS011;12634;50.852;5.676;2023-03-11T10:05:57;3.50;;;1.00;;
24467;SDS011;12634;50.852;5.676;2023-03-11T10:08:33;6.28;;;2.00;;
24467;SDS011;12634;50.852;5.676;2023-03-11T10:11:10;3.03;;;1.00;;
24467;SDS011;12634;50.852;5.676;2023-03-11T10:14:00;4.68;;;1.38;;
24467;SDS011;12634;50.852;5.676;2023-03-11T10:16:40;7.07;;;1.35;;
24467;SDS011;12634;50.852;5.676;2023-03-11T10:19:18;3.45;;;0.90;;
24467;SDS011;12634;50.852;5.676;2023-03-11T10:21:57;5.13;;;0.90;;
24467;SDS011;12634;50.852;5.676;2023-03-11T10:24:37;3.58;;;1.15;;
24467;SDS011;12634;50.852;5.676;2023-03-11T10:27:15;4.85;;;1.20;;
24467;SDS011;12634;50.852;5.676;2023-03-11T10:29:47;5.78;;;0.93;;
24467;SDS011;12634;50.852;5.676;2023-03-11T10:32:20;5.40;;;0.82;;
24467;SDS011;12634;50.852;5.676;2023-03-11T10:34:53;3.10;;;0.70;;
24467;SDS011;12634;50.852;5.676;2023-03-11T10:37:24;10.05;;;1.15;;
24467;SDS011;12634;50.852;5.676;2023-03-11T10:39:56;5.72;;;1.10;;
24467;SDS011;12634;50.852;5.676;2023-03-11T10:42:34;4.38;;;1.00;;
24467;SDS011;12634;50.852;5.676;2023-03-11T10:45:03;6.75;;;1.08;;
24467;SDS011;12634;50.852;5.676;2023-03-11T10:47:36;5.22;;;1.25;;
24467;SDS011;12634;50.852;5.676;2023-03-11T10:50:03;3.53;;;0.80;;
24467;SDS011;12634;50.852;5.676;2023-03-11T10:52:30;7.55;;;1.60;;
24467;SDS011;12634;50.852;5.676;2023-03-11T10:55:03;4.95;;;1.45;;
24467;SDS011;12634;50.852;5.676;2023-03-11T10:57:32;4.57;;;1.00;;
24467;SDS011;12634;50.852;5.676;2023-03-11T11:00:01;4.68;;;1.02;;
24467;SDS011;12634;50.852;5.676;2023-03-11T11:02:37;5.50;;;1.10;;
24467;SDS011;12634;50.852;5.676;2023-03-11T11:05:25;4.25;;;1.02;;
24467;SDS011;12634;50.852;5.676;2023-03-11T11:08:05;4.65;;;1.67;;
24467;SDS011;12634;50.852;5.676;2023-03-11T11:10:35;6.07;;;1.60;;
24467;SDS011;12634;50.852;5.676;2023-03-11T11:13:14;5.53;;;1.45;;
24467;SDS011;12634;50.852;5.676;2023-03-11T11:15:50;3.30;;;0.73;;
24467;SDS011;12634;50.852;5.676;2023-03-11T11:18:20;2.40;;;0.70;;
24467;SDS011;12634;50.852;5.676;2023-03-11T11:20:53;2.90;;;1.00;;
24467;SDS011;12634;50.852;5.676;2023-03-11T11:23:25;6.35;;;1.60;;
24467;SDS011;12634;50.852;5.676;2023-03-11T11:25:58;5.65;;;1.23;;
24467;SDS011;12634;50.852;5.676;2023-03-11T11:28:29;6.07;;;1.15;;
24467;SDS011;12634;50.852;5.676;2023-03-11T11:30:58;4.05;;;1.25;;
24467;SDS011;12634;50.852;5.676;2023-03-11T11:33:27;3.25;;;1.02;;
24467;SDS011;12634;50.852;5.676;2023-03-11T11:35:56;3.95;;;1.17;;
24467;SDS011;12634;50.852;5.676;2023-03-11T11:38:27;2.65;;;1.02;;
24467;SDS011;12634;50.852;5.676;2023-03-11T11:40:56;4.38;;;1.05;;
24467;SDS011;12634;50.852;5.676;2023-03-11T11:46:19;2.58;;;0.88;;
24467;SDS011;12634;50.852;5.676;2023-03-11T11:48:56;5.57;;;0.90;;
24467;SDS011;12634;50.852;5.676;2023-03-11T11:51:32;3.83;;;0.80;;
24467;SDS011;12634;50.852;5.676;2023-03-11T11:54:10;3.45;;;1.10;;
24467;SDS011;12634;50.852;5.676;2023-03-11T11:56:43;6.32;;;0.95;;
24467;SDS011;12634;50.852;5.676;2023-03-11T11:59:13;3.95;;;1.05;;
24467;SDS011;12634;50.852;5.676;2023-03-11T12:01:44;4.80;;;1.13;;
24467;SDS011;12634;50.852;5.676;2023-03-11T12:04:31;3.47;;;0.98;;
24467;SDS011;12634;50.852;5.676;2023-03-11T12:07:17;6.90;;;1.08;;
24467;SDS011;12634;50.852;5.676;2023-03-11T12:09:59;3.85;;;1.08;;
24467;SDS011;12634;50.852;5.676;2023-03-11T12:12:43;4.65;;;0.70;;
24467;SDS011;12634;50.852;5.676;2023-03-11T12:15:17;3.58;;;0.90;;
24467;SDS011;12634;50.852;5.676;2023-03-11T12:17:49;1.92;;;0.80;;
24467;SDS011;12634;50.852;5.676;2023-03-11T12:20:23;4.00;;;0.85;;
24467;SDS011;12634;50.852;5.676;2023-03-11T12:22:56;4.22;;;0.80;;
24467;SDS011;12634;50.852;5.676;2023-03-11T12:25:36;3.55;;;0.75;;
24467;SDS011;12634;50.852;5.676;2023-03-11T12:28:15;3.05;;;1.05;;
24467;SDS011;12634;50.852;5.676;2023-03-11T12:30:47;5.03;;;1.85;;
24467;SDS011;12634;50.852;5.676;2023-03-11T12:33:17;4.57;;;1.25;;
24467;SDS011;12634;50.852;5.676;2023-03-11T12:35:52;5.55;;;1.33;;
24467;SDS011;12634;50.852;5.676;2023-03-11T12:38:23;2.90;;;0.90;;
24467;SDS011;12634;50.852;5.676;2023-03-11T12:41:04;3.00;;;0.90;;
24467;SDS011;12634;50.852;5.676;2023-03-11T12:49:27;3.13;;;1.08;;
24467;SDS011;12634;50.852;5.676;2023-03-11T12:51:59;2.58;;;1.00;;
24467;SDS011;12634;50.852;5.676;2023-03-11T12:54:30;4.55;;;1.00;;
24467;SDS011;12634;50.852;5.676;2023-03-11T12:56:59;3.03;;;1.00;;
24467;SDS011;12634;50.852;5.676;2023-03-11T13:02:52;3.95;;;1.00;;
24467;SDS011;12634;50.852;5.676;2023-03-11T13:05:44;4.57;;;0.98;;
24467;SDS011;12634;50.852;5.676;2023-03-11T13:08:21;6.75;;;1.25;;
24467;SDS011;12634;50.852;5.676;2023-03-11T13:10:50;3.25;;;0.93;;
24467;SDS011;12634;50.852;5.676;2023-03-11T13:13:29;4.40;;;1.15;;
24467;SDS011;12634;50.852;5.676;2023-03-11T13:22:01;3.88;;;0.98;;
24467;SDS011;12634;50.852;5.676;2023-03-11T13:24:40;3.08;;;1.00;;
24467;SDS011;12634;50.852;5.676;2023-03-11T13:27:24;5.20;;;1.10;;
24467;SDS011;12634;50.852;5.676;2023-03-11T13:30:09;5.85;;;1.08;;
24467;SDS011;12634;50.852;5.676;2023-03-11T13:32:53;3.72;;;1.13;;
24467;SDS011;12634;50.852;5.676;2023-03-11T13:35:39;5.15;;;1.10;;
24467;SDS011;12634;50.852;5.676;2023-03-11T13:41:18;4.07;;;1.05;;
24467;SDS011;12634;50.852;5.676;2023-03-11T13:43:50;6.45;;;1.05;;
24467;SDS011;12634;50.852;5.676;2023-03-11T13:46:23;2.75;;;0.88;;
24467;SDS011;12634;50.852;5.676;2023-03-11T13:48:55;2.67;;;0.90;;
24467;SDS011;12634;50.852;5.676;2023-03-11T13:51:34;3.47;;;0.70;;
24467;SDS011;12634;50.852;5.676;2023-03-11T13:54:08;5.43;;;1.00;;
24467;SDS011;12634;50.852;5.676;2023-03-11T13:56:49;1.90;;;0.80;;
24467;SDS011;12634;50.852;5.676;2023-03-11T13:59:21;5.50;;;0.90;;
24467;SDS011;12634;50.852;5.676;2023-03-11T14:01:50;4.88;;;1.02;;
24467;SDS011;12634;50.852;5.676;2023-03-11T14:04:19;2.28;;;0.77;;
24467;SDS011;12634;50.852;5.676;2023-03-11T14:06:52;6.60;;;1.15;;
24467;SDS011;12634;50.852;5.676;2023-03-11T14:09:28;4.97;;;0.95;;
24467;SDS011;12634;50.852;5.676;2023-03-11T14:12:02;2.50;;;0.90;;
24467;SDS011;12634;50.852;5.676;2023-03-11T14:14:39;3.20;;;0.95;;
24467;SDS011;12634;50.852;5.676;2023-03-11T14:17:14;3.92;;;1.20;;
24467;SDS011;12634;50.852;5.676;2023-03-11T14:19:42;2.78;;;0.80;;
24467;SDS011;12634;50.852;5.676;2023-03-11T14:22:28;4.40;;;1.10;;
24467;SDS011;12634;50.852;5.676;2023-03-11T14:24:58;3.03;;;1.13;;
24467;SDS011;12634;50.852;5.676;2023-03-11T14:27:29;3.25;;;1.10;;
24467;SDS011;12634;50.852;5.676;2023-03-11T14:29:56;2.70;;;0.95;;
24467;SDS011;12634;50.852;5.676;2023-03-11T14:32:24;2.90;;;1.15;;
24467;SDS011;12634;50.852;5.676;2023-03-11T14:34:53;4.78;;;1.05;;
24467;SDS011;12634;50.852;5.676;2023-03-11T14:37:26;5.85;;;1.00;;
24467;SDS011;12634;50.852;5.676;2023-03-11T14:39:59;5.10;;;0.98;;
24467;SDS011;12634;50.852;5.676;2023-03-11T14:42:27;5.63;;;1.20;;
24467;SDS011;12634;50.852;5.676;2023-03-11T14:45:01;5.22;;;1.00;;
24467;SDS011;12634;50.852;5.676;2023-03-11T14:47:33;2.10;;;0.88;;
24467;SDS011;12634;50.852;5.676;2023-03-11T14:50:04;2.15;;;0.82;;
24467;SDS011;12634;50.852;5.676;2023-03-11T14:52:37;4.90;;;0.95;;
24467;SDS011;12634;50.852;5.676;2023-03-11T14:55:12;3.78;;;1.10;;
24467;SDS011;12634;50.852;5.676;2023-03-11T14:57:43;6.50;;;1.15;;
24467;SDS011;12634;50.852;5.676;2023-03-11T15:00:14;2.42;;;0.77;;
24467;SDS011;12634;50.852;5.676;2023-03-11T15:02:50;5.57;;;0.95;;
24467;SDS011;12634;50.852;5.676;2023-03-11T15:05:29;4.95;;;1.15;;
24467;SDS011;12634;50.852;5.676;2023-03-11T15:08:01;5.72;;;1.05;;
24467;SDS011;12634;50.852;5.676;2023-03-11T15:10:33;5.65;;;1.20;;
24467;SDS011;12634;50.852;5.676;2023-03-11T15:13:08;4.30;;;1.10;;
24467;SDS011;12634;50.852;5.676;2023-03-11T15:15:40;4.00;;;0.95;;
24467;SDS011;12634;50.852;5.676;2023-03-11T15:18:17;3.85;;;1.00;;
24467;SDS011;12634;50.852;5.676;2023-03-11T15:20:58;4.25;;;0.95;;
24467;SDS011;12634;50.852;5.676;2023-03-11T15:23:28;4.53;;;0.80;;
24467;SDS011;12634;50.852;5.676;2023-03-11T15:25:57;2.85;;;0.70;;
24467;SDS011;12634;50.852;5.676;2023-03-11T15:28:26;5.32;;;1.25;;
24467;SDS011;12634;50.852;5.676;2023-03-11T15:33:40;3.67;;;1.00;;